createdAt,value
2018-09-03T00:00:25.451Z,0.00
2018-09-03T00:02:18.944Z,0.00
2018-09-03T00:03:18.880Z,0.00
2018-09-03T00:05:12.216Z,0.00
2018-09-03T00:06:12.272Z,0.00
2018-09-03T00:08:05.697Z,0.00
2018-09-03T00:09:05.556Z,0.00
2018-09-03T00:10:58.971Z,0.00
2018-09-03T00:11:58.939Z,0.00
2018-09-03T00:13:52.362Z,0.00
2018-09-03T00:14:52.301Z,0.00
2018-09-03T00:16:45.832Z,0.00
2018-09-03T00:17:45.736Z,0.00
2018-09-03T00:19:39.825Z,0.00
2018-09-03T00:20:39.079Z,0.00
2018-09-03T00:22:32.408Z,0.00
2018-09-03T00:23:32.446Z,0.00
2018-09-03T00:25:25.821Z,0.00
2018-09-03T00:26:25.786Z,0.00
2018-09-03T00:28:18.736Z,0.00
2018-09-03T00:29:18.685Z,0.00
2018-09-03T00:31:11.773Z,0.00
2018-09-03T00:32:12.036Z,0.00
2018-09-03T00:34:05.540Z,0.00
2018-09-03T00:35:05.707Z,0.00
2018-09-03T00:36:59.828Z,0.00
2018-09-03T00:37:58.811Z,0.00
2018-09-03T00:39:52.191Z,0.00
2018-09-03T00:40:52.436Z,0.00
2018-09-03T00:42:45.657Z,0.00
2018-09-03T00:43:45.600Z,0.00
2018-09-03T00:45:38.978Z,0.00
2018-09-03T00:46:39.561Z,0.00
2018-09-03T00:48:32.341Z,0.00
2018-09-03T00:49:32.018Z,0.00
2018-09-03T00:51:25.726Z,0.00
2018-09-03T00:52:25.394Z,0.00
2018-09-03T00:54:20.114Z,0.00
2018-09-03T00:55:20.080Z,0.00
2018-09-03T00:57:13.450Z,0.00
2018-09-03T00:58:13.489Z,0.00
2018-09-03T01:00:06.787Z,0.00
2018-09-03T01:01:06.771Z,0.00
2018-09-03T01:03:00.193Z,0.00
2018-09-03T01:04:00.245Z,0.00
2018-09-03T01:05:53.599Z,0.00
2018-09-03T01:06:53.575Z,0.00
2018-09-03T01:08:46.425Z,0.00
2018-09-03T01:09:46.424Z,0.00
2018-09-03T01:11:39.596Z,0.00
2018-09-03T01:12:39.289Z,0.00
2018-09-03T01:14:32.758Z,0.00
2018-09-03T01:15:32.622Z,0.00
2018-09-03T01:17:26.635Z,0.00
2018-09-03T01:18:25.507Z,0.00
2018-09-03T01:20:19.275Z,0.00
2018-09-03T01:21:18.886Z,0.00
2018-09-03T01:23:12.069Z,0.00
2018-09-03T01:24:12.338Z,0.00
2018-09-03T01:26:05.989Z,0.00
2018-09-03T01:27:06.006Z,0.00
2018-09-03T01:28:58.456Z,0.00
2018-09-03T01:29:58.348Z,0.00
2018-09-03T01:31:52.376Z,0.00
2018-09-03T01:32:52.255Z,0.00
2018-09-03T01:34:45.641Z,0.00
2018-09-03T01:35:45.657Z,0.00
2018-09-03T01:37:39.199Z,0.00
2018-09-03T01:38:38.550Z,0.00
2018-09-03T01:40:31.985Z,0.00
2018-09-03T01:41:31.861Z,0.00
2018-09-03T01:43:24.877Z,0.00
2018-09-03T01:44:24.480Z,0.00
2018-09-03T01:46:18.181Z,0.00
2018-09-03T01:47:17.836Z,0.00
2018-09-03T01:49:11.245Z,0.00
2018-09-03T01:50:11.567Z,0.00
2018-09-03T01:52:04.372Z,0.00
2018-09-03T01:53:04.332Z,0.00
2018-09-03T01:54:57.765Z,0.00
2018-09-03T01:55:57.686Z,0.00
2018-09-03T01:57:51.165Z,0.00
2018-09-03T01:58:50.807Z,0.00
2018-09-03T02:00:44.063Z,0.00
2018-09-03T02:01:44.012Z,0.00
2018-09-03T02:03:36.844Z,0.00
2018-09-03T02:04:36.548Z,0.00
2018-09-03T02:06:30.265Z,0.00
2018-09-03T02:07:29.958Z,0.00
2018-09-03T02:09:22.941Z,0.00
2018-09-03T02:10:23.079Z,0.00
2018-09-03T02:12:17.250Z,0.00
2018-09-03T02:13:16.544Z,0.00
2018-09-03T02:15:09.968Z,0.00
2018-09-03T02:16:09.829Z,0.00
2018-09-03T02:18:03.822Z,0.00
2018-09-03T02:19:02.950Z,0.00
2018-09-03T02:20:56.201Z,0.00
2018-09-03T02:21:55.777Z,0.00
2018-09-03T02:23:51.070Z,0.00
2018-09-03T02:24:49.195Z,0.00
2018-09-03T02:26:42.884Z,0.00
2018-09-03T02:27:42.840Z,0.00
2018-09-03T02:29:36.243Z,0.00
2018-09-03T02:30:35.915Z,0.00
2018-09-03T02:32:29.675Z,0.00
2018-09-03T02:33:29.662Z,0.00
2018-09-03T02:35:22.999Z,0.00
2018-09-03T02:36:22.640Z,0.00
2018-09-03T02:38:16.385Z,0.00
2018-09-03T02:39:16.327Z,0.00
2018-09-03T02:41:10.021Z,0.00
2018-09-03T02:42:09.737Z,0.00
2018-09-03T02:44:02.788Z,0.00
2018-09-03T02:45:03.121Z,0.00
2018-09-03T02:46:57.248Z,0.00
2018-09-03T02:47:55.977Z,0.00
2018-09-03T02:49:48.896Z,0.00
2018-09-03T02:50:48.498Z,0.00
2018-09-03T02:52:41.837Z,0.00
2018-09-03T02:53:41.712Z,0.00
2018-09-03T02:55:36.157Z,0.00
2018-09-03T02:56:35.769Z,0.00
2018-09-03T02:58:32.572Z,0.00
2018-09-03T02:59:29.491Z,0.00
2018-09-03T03:01:22.845Z,0.00
2018-09-03T03:02:22.857Z,0.00
2018-09-03T03:04:18.667Z,0.00
2018-09-03T03:05:18.397Z,0.00
2018-09-03T03:07:12.053Z,0.00
2018-09-03T03:08:12.119Z,0.00
2018-09-03T03:10:04.736Z,0.00
2018-09-03T03:11:05.024Z,0.00
2018-09-03T03:12:58.360Z,0.00
2018-09-03T03:13:58.361Z,0.00
2018-09-03T03:15:51.002Z,0.00
2018-09-03T03:16:51.240Z,0.00
2018-09-03T03:18:44.598Z,0.00
2018-09-03T03:19:44.622Z,0.00
2018-09-03T03:21:37.440Z,0.00
2018-09-03T03:22:37.481Z,0.00
2018-09-03T03:24:30.879Z,0.00
2018-09-03T03:25:30.790Z,0.00
2018-09-03T03:27:23.717Z,0.00
2018-09-03T03:28:23.689Z,0.00
2018-09-03T03:30:17.217Z,0.00
2018-09-03T03:31:17.092Z,0.00
2018-09-03T03:33:10.465Z,0.00
2018-09-03T03:34:10.498Z,0.00
2018-09-03T03:36:03.818Z,0.00
2018-09-03T03:37:03.849Z,0.00
2018-09-03T03:38:58.295Z,0.00
2018-09-03T03:39:57.891Z,0.00
2018-09-03T03:41:51.563Z,0.00
2018-09-03T03:42:51.228Z,0.00
2018-09-03T03:44:44.955Z,0.00
2018-09-03T03:45:44.627Z,0.00
2018-09-03T03:47:38.339Z,0.00
2018-09-03T03:48:38.004Z,0.00
2018-09-03T03:50:31.204Z,0.00
2018-09-03T03:51:31.171Z,0.00
2018-09-03T03:53:24.164Z,0.00
2018-09-03T03:54:24.032Z,0.00
2018-09-03T03:56:16.904Z,0.00
2018-09-03T03:57:16.654Z,0.00
2018-09-03T03:59:10.330Z,0.00
2018-09-03T04:00:10.037Z,0.00
2018-09-03T04:02:03.809Z,0.00
2018-09-03T04:03:03.678Z,0.00
2018-09-03T04:04:57.058Z,0.00
2018-09-03T04:05:57.308Z,0.00
2018-09-03T04:07:50.502Z,0.00
2018-09-03T04:08:49.932Z,0.00
2018-09-03T04:10:43.832Z,0.00
2018-09-03T04:11:43.276Z,0.00
2018-09-03T04:13:35.974Z,0.00
2018-09-03T04:14:36.174Z,0.00
2018-09-03T04:16:29.158Z,0.00
2018-09-03T04:17:29.215Z,0.00
2018-09-03T04:19:24.073Z,0.00
2018-09-03T04:20:22.189Z,0.00
2018-09-03T04:22:16.475Z,0.00
2018-09-03T04:23:15.959Z,0.00
2018-09-03T04:25:08.730Z,0.00
2018-09-03T04:26:08.671Z,0.00
2018-09-03T04:28:02.107Z,0.00
2018-09-03T04:29:02.086Z,0.00
2018-09-03T04:30:56.558Z,0.00
2018-09-03T04:31:56.040Z,0.00
2018-09-03T04:33:49.433Z,0.00
2018-09-03T04:34:49.434Z,0.00
2018-09-03T04:36:42.844Z,0.00
2018-09-03T04:37:42.774Z,0.00
2018-09-03T04:39:36.194Z,0.00
2018-09-03T04:40:35.888Z,0.00
2018-09-03T04:42:29.266Z,0.00
2018-09-03T04:43:29.513Z,0.00
2018-09-03T04:45:22.466Z,0.00
2018-09-03T04:46:22.409Z,0.00
2018-09-03T04:48:16.535Z,0.00
2018-09-03T04:49:15.761Z,0.00
2018-09-03T04:51:08.940Z,0.00
2018-09-03T04:52:08.893Z,0.00
2018-09-03T04:54:02.090Z,0.00
2018-09-03T04:55:02.351Z,0.00
2018-09-03T04:56:55.148Z,0.00
2018-09-03T04:57:55.158Z,0.00
2018-09-03T04:59:48.809Z,0.00
2018-09-03T05:00:48.488Z,0.00
2018-09-03T05:02:42.174Z,0.00
2018-09-03T05:03:41.855Z,0.00
2018-09-03T05:05:35.443Z,0.00
2018-09-03T05:06:35.222Z,5.63
2018-09-03T05:08:28.108Z,5.63
2018-09-03T05:09:28.075Z,5.63
2018-09-03T05:11:21.522Z,5.63
2018-09-03T05:12:21.459Z,5.63
2018-09-03T05:14:15.135Z,5.63
2018-09-03T05:15:14.912Z,5.63
2018-09-03T05:17:07.930Z,5.63
2018-09-03T05:18:07.713Z,5.63
2018-09-03T05:20:01.123Z,5.63
2018-09-03T05:21:01.090Z,5.63
2018-09-03T05:22:54.806Z,11.25
2018-09-03T05:23:54.499Z,5.63
2018-09-03T05:25:47.468Z,5.63
2018-09-03T05:26:47.478Z,5.63
2018-09-03T05:28:42.658Z,11.25
2018-09-03T05:29:41.085Z,11.25
2018-09-03T05:31:34.539Z,11.25
2018-09-03T05:32:35.673Z,11.25
2018-09-03T05:34:28.149Z,11.25
2018-09-03T05:35:28.043Z,11.25
2018-09-03T05:37:21.408Z,11.25
2018-09-03T05:38:22.886Z,16.88
2018-09-03T05:40:17.307Z,16.88
2018-09-03T05:41:17.092Z,16.88
2018-09-03T05:43:12.129Z,16.88
2018-09-03T05:44:11.357Z,22.50
2018-09-03T05:46:05.163Z,22.50
2018-09-03T05:47:04.708Z,22.50
2018-09-03T05:48:57.369Z,22.50
2018-09-03T05:49:57.334Z,22.50
2018-09-03T05:51:51.848Z,16.88
2018-09-03T05:52:51.705Z,16.88
2018-09-03T05:54:45.173Z,16.88
2018-09-03T05:55:45.416Z,22.50
2018-09-03T05:57:37.686Z,28.13
2018-09-03T05:58:45.071Z,33.75
2018-09-03T06:00:30.871Z,33.75
2018-09-03T06:01:40.273Z,39.38
2018-09-03T06:03:26.610Z,39.38
2018-09-03T06:04:25.726Z,45.00
2018-09-03T06:06:20.230Z,50.63
2018-09-03T06:07:20.095Z,61.88
2018-09-03T06:09:14.279Z,73.13
2018-09-03T06:10:13.525Z,73.13
2018-09-03T06:12:06.661Z,84.38
2018-09-03T06:13:06.815Z,90.00
2018-09-03T06:15:50.381Z,101.25
2018-09-03T06:16:50.899Z,106.88
2018-09-03T06:18:42.412Z,112.50
2018-09-03T06:19:43.380Z,118.13
2018-09-03T06:21:39.451Z,123.75
2018-09-03T06:22:37.718Z,129.38
2018-09-03T06:24:31.922Z,135.00
2018-09-03T06:25:31.316Z,135.00
2018-09-03T06:27:24.234Z,123.75
2018-09-03T06:28:25.066Z,112.50
2018-09-03T06:30:18.821Z,106.88
2018-09-03T06:31:17.669Z,106.88
2018-09-03T06:33:12.071Z,106.88
2018-09-03T06:34:12.207Z,101.25
2018-09-03T06:36:05.402Z,95.63
2018-09-03T06:37:03.688Z,95.63
2018-09-03T06:38:58.938Z,95.63
2018-09-03T06:39:57.586Z,95.63
2018-09-03T06:41:51.816Z,95.63
2018-09-03T06:42:50.688Z,90.00
2018-09-03T06:44:44.759Z,84.38
2018-09-03T06:45:44.055Z,84.38
2018-09-03T06:47:40.651Z,95.63
2018-09-03T06:48:37.035Z,90.00
2018-09-03T06:50:32.024Z,90.00
2018-09-03T06:51:31.530Z,90.00
2018-09-03T06:53:25.391Z,95.63
2018-09-03T06:54:24.026Z,95.63
2018-09-03T06:56:18.304Z,90.00
2018-09-03T06:57:17.892Z,90.00
2018-09-03T06:59:09.882Z,90.00
2018-09-03T07:00:09.411Z,90.00
2018-09-03T07:02:02.659Z,84.38
2018-09-03T07:03:02.584Z,84.38
2018-09-03T07:04:55.561Z,90.00
2018-09-03T07:05:55.755Z,95.63
2018-09-03T07:07:48.873Z,95.63
2018-09-03T07:08:49.431Z,101.25
2018-09-03T07:10:44.413Z,129.38
2018-09-03T07:11:42.012Z,151.88
2018-09-03T07:13:35.682Z,185.63
2018-09-03T07:14:37.881Z,174.38
2018-09-03T07:16:29.084Z,157.50
2018-09-03T07:17:29.080Z,140.63
2018-09-03T07:19:23.057Z,129.38
2018-09-03T07:20:22.101Z,129.38
2018-09-03T07:22:19.342Z,129.38
2018-09-03T07:23:18.388Z,135.00
2018-09-03T07:25:12.302Z,129.38
2018-09-03T07:26:11.791Z,123.75
2018-09-03T07:28:07.244Z,118.13
2018-09-03T07:29:05.175Z,118.13
2018-09-03T07:30:59.618Z,123.75
2018-09-03T07:31:58.097Z,129.38
2018-09-03T07:33:53.063Z,135.00
2018-09-03T07:34:53.096Z,123.75
2018-09-03T07:36:45.888Z,106.88
2018-09-03T07:37:45.540Z,106.88
2018-09-03T07:39:39.378Z,90.00
2018-09-03T07:40:39.290Z,84.38
2018-09-03T07:42:33.654Z,84.38
2018-09-03T07:43:33.652Z,90.00
2018-09-03T07:45:27.534Z,90.00
2018-09-03T07:46:27.013Z,90.00
2018-09-03T07:48:21.485Z,90.00
2018-09-03T07:49:21.045Z,90.00
2018-09-03T07:51:15.353Z,84.38
2018-09-03T07:52:14.773Z,84.38
2018-09-03T07:54:08.790Z,84.38
2018-09-03T07:55:08.914Z,95.63
2018-09-03T07:57:06.666Z,118.13
2018-09-03T07:58:04.658Z,129.38
2018-09-03T08:00:01.171Z,163.13
2018-09-03T08:00:57.715Z,180.00
2018-09-03T08:02:54.021Z,196.88
2018-09-03T08:03:53.984Z,196.88
2018-09-03T08:05:47.369Z,202.50
2018-09-03T08:06:47.008Z,196.88
2018-09-03T08:08:40.775Z,185.63
2018-09-03T08:09:40.396Z,196.88
2018-09-03T08:11:34.164Z,225.00
2018-09-03T08:12:34.117Z,225.00
2018-09-03T08:14:27.523Z,230.63
2018-09-03T08:15:27.176Z,230.63
2018-09-03T08:17:20.912Z,230.63
2018-09-03T08:18:20.543Z,225.00
2018-09-03T08:20:14.883Z,196.88
2018-09-03T08:21:15.869Z,180.00
2018-09-03T08:23:08.402Z,185.63
2018-09-03T08:24:06.821Z,196.88
2018-09-03T08:26:04.306Z,163.13
2018-09-03T08:27:00.532Z,151.88
2018-09-03T08:28:53.981Z,140.63
2018-09-03T08:29:55.460Z,129.38
2018-09-03T08:31:48.193Z,118.13
2018-09-03T08:32:48.172Z,106.88
2018-09-03T08:34:41.539Z,90.00
2018-09-03T08:35:41.587Z,84.38
2018-09-03T08:37:35.522Z,90.00
2018-09-03T08:38:34.556Z,106.88
2018-09-03T08:40:29.306Z,129.38
2018-09-03T08:41:31.902Z,140.63
2018-09-03T08:43:22.759Z,157.50
2018-09-03T08:44:22.662Z,163.13
2018-09-03T08:46:16.070Z,180.00
2018-09-03T08:47:16.026Z,185.63
2018-09-03T08:49:16.188Z,213.75
2018-09-03T08:50:22.747Z,230.63
2018-09-03T08:52:27.359Z,253.13
2018-09-03T08:53:28.379Z,264.38
2018-09-03T08:55:21.999Z,275.63
2018-09-03T08:56:21.677Z,275.63
2018-09-03T08:58:15.274Z,270.00
2018-09-03T08:59:14.692Z,264.38
2018-09-03T09:01:08.124Z,230.63
2018-09-03T09:02:08.509Z,213.75
2018-09-03T09:04:01.215Z,185.63
2018-09-03T09:05:00.548Z,174.38
2018-09-03T09:06:55.135Z,168.75
2018-09-03T09:07:54.576Z,168.75
2018-09-03T09:09:47.341Z,135.00
2018-09-03T09:10:47.061Z,123.75
2018-09-03T09:12:40.860Z,129.38
2018-09-03T09:13:42.262Z,140.63
2018-09-03T09:15:34.674Z,151.88
2018-09-03T09:16:33.752Z,151.88
2018-09-03T09:18:29.048Z,146.25
2018-09-03T09:19:29.341Z,140.63
2018-09-03T09:21:23.917Z,135.00
2018-09-03T09:22:22.852Z,140.63
2018-09-03T09:24:17.279Z,146.25
2018-09-03T09:25:16.947Z,151.88
2018-09-03T09:27:11.246Z,157.50
2018-09-03T09:28:10.382Z,180.00
2018-09-03T09:30:07.197Z,241.88
2018-09-03T09:31:03.852Z,241.88
2018-09-03T09:32:57.160Z,196.88
2018-09-03T09:33:56.524Z,185.63
2018-09-03T09:35:49.157Z,202.50
2018-09-03T09:36:50.337Z,219.38
2018-09-03T09:38:42.097Z,225.00
2018-09-03T09:39:42.215Z,219.38
2018-09-03T09:41:40.560Z,213.75
2018-09-03T09:42:39.833Z,225.00
2018-09-03T09:44:32.882Z,247.50
2018-09-03T09:45:32.547Z,270.00
2018-09-03T09:47:26.271Z,292.50
2018-09-03T09:48:26.268Z,275.63
2018-09-03T09:50:19.696Z,225.00
2018-09-03T09:51:19.317Z,196.88
2018-09-03T09:53:14.111Z,241.88
2018-09-03T09:54:12.667Z,292.50
2018-09-03T09:56:11.699Z,337.50
2018-09-03T09:57:08.177Z,337.50
2018-09-03T09:59:09.514Z,320.63
2018-09-03T10:00:02.082Z,320.63
2018-09-03T10:01:55.500Z,320.63
2018-09-03T10:02:55.119Z,309.38
2018-09-03T10:04:49.500Z,241.88
2018-09-03T10:05:49.995Z,191.25
2018-09-03T10:07:43.031Z,185.63
2018-09-03T10:08:43.864Z,185.63
2018-09-03T10:10:36.267Z,208.13
2018-09-03T10:11:36.247Z,230.63
2018-09-03T10:13:30.221Z,275.63
2018-09-03T10:14:28.823Z,275.63
2018-09-03T10:16:22.599Z,241.88
2018-09-03T10:17:22.623Z,230.63
2018-09-03T10:19:21.261Z,225.00
2018-09-03T10:20:16.568Z,258.75
2018-09-03T10:22:10.370Z,264.38
2018-09-03T10:23:10.031Z,258.75
2018-09-03T10:25:03.926Z,230.63
2018-09-03T10:26:03.058Z,253.13
2018-09-03T10:27:56.851Z,303.75
2018-09-03T10:28:56.389Z,320.63
2018-09-03T10:30:49.864Z,281.25
2018-09-03T10:31:49.812Z,247.50
2018-09-03T10:33:43.780Z,191.25
2018-09-03T10:34:43.150Z,191.25
2018-09-03T10:36:46.640Z,180.00
2018-09-03T10:37:36.559Z,191.25
2018-09-03T10:39:30.993Z,196.88
2018-09-03T10:40:29.984Z,180.00
2018-09-03T10:42:23.387Z,174.38
2018-09-03T10:43:22.967Z,168.75
2018-09-03T10:45:16.884Z,174.38
2018-09-03T10:46:17.271Z,180.00
2018-09-03T10:48:10.217Z,191.25
2018-09-03T10:49:09.764Z,196.88
2018-09-03T10:51:04.178Z,180.00
2018-09-03T10:52:03.937Z,168.75
2018-09-03T10:53:56.572Z,163.13
2018-09-03T10:54:57.111Z,168.75
2018-09-03T10:56:50.121Z,202.50
2018-09-03T10:57:49.199Z,219.38
2018-09-03T10:59:51.068Z,247.50
2018-09-03T11:00:49.909Z,270.00
2018-09-03T11:02:43.390Z,303.75
2018-09-03T11:03:43.343Z,315.00
2018-09-03T11:05:43.357Z,326.25
2018-09-03T11:06:36.319Z,326.25
2018-09-03T11:08:30.246Z,309.38
2018-09-03T11:09:29.548Z,303.75
2018-09-03T11:11:22.988Z,298.13
2018-09-03T11:12:23.513Z,292.50
2018-09-03T11:14:16.477Z,275.63
2018-09-03T11:15:16.388Z,281.25
2018-09-03T11:17:09.794Z,286.88
2018-09-03T11:18:09.714Z,286.88
2018-09-03T11:20:06.266Z,286.88
2018-09-03T11:21:02.775Z,292.50
2018-09-03T11:22:56.551Z,298.13
2018-09-03T11:23:56.605Z,292.50
2018-09-03T11:25:49.996Z,298.13
2018-09-03T11:26:49.940Z,303.75
2018-09-03T11:28:43.383Z,315.00
2018-09-03T11:29:43.369Z,315.00
2018-09-03T11:31:37.268Z,326.25
2018-09-03T11:32:36.322Z,326.25
2018-09-03T11:34:31.720Z,320.63
2018-09-03T11:35:30.229Z,320.63
2018-09-03T11:37:23.152Z,315.00
2018-09-03T11:38:22.781Z,315.00
2018-09-03T11:40:17.118Z,309.38
2018-09-03T11:41:17.067Z,315.00
2018-09-03T11:43:12.405Z,303.75
2018-09-03T11:44:11.919Z,309.38
2018-09-03T11:46:11.842Z,320.63
2018-09-03T11:47:05.328Z,326.25
2018-09-03T11:48:59.776Z,326.25
2018-09-03T11:49:58.654Z,320.63
2018-09-03T11:51:52.088Z,320.63
2018-09-03T11:52:51.225Z,320.63
2018-09-03T11:54:47.671Z,331.88
2018-09-03T11:55:43.739Z,337.50
2018-09-03T11:57:37.446Z,331.88
2018-09-03T11:58:37.454Z,326.25
2018-09-03T12:00:30.951Z,320.63
2018-09-03T12:01:30.838Z,309.38
2018-09-03T12:03:30.327Z,298.13
2018-09-03T12:04:25.289Z,298.13
2018-09-03T12:06:33.297Z,303.75
2018-09-03T12:07:20.018Z,303.75
2018-09-03T12:09:12.278Z,298.13
2018-09-03T12:10:12.443Z,292.50
2018-09-03T12:12:05.618Z,286.88
2018-09-03T12:14:18.978Z,270.00
2018-09-03T12:15:18.986Z,264.38
2018-09-03T12:17:17.290Z,253.13
2018-09-03T12:18:17.734Z,247.50
2018-09-03T12:20:10.589Z,247.50
2018-09-03T12:21:10.277Z,253.13
2018-09-03T12:23:04.248Z,247.50
2018-09-03T12:24:04.555Z,241.88
2018-09-03T12:25:57.404Z,236.25
2018-09-03T12:26:57.081Z,236.25
2018-09-03T12:28:50.900Z,225.00
2018-09-03T12:29:50.879Z,213.75
2018-09-03T12:31:44.364Z,191.25
2018-09-03T12:32:43.967Z,185.63
2018-09-03T12:34:40.532Z,174.38
2018-09-03T12:35:37.391Z,168.75
2018-09-03T12:37:32.258Z,168.75
2018-09-03T12:38:30.649Z,168.75
2018-09-03T12:40:37.094Z,163.13
2018-09-03T12:41:24.066Z,157.50
2018-09-03T12:43:17.513Z,157.50
2018-09-03T12:45:31.911Z,151.88
2018-09-03T12:47:44.427Z,146.25
2018-09-03T12:49:57.868Z,157.50
2018-09-03T12:50:57.763Z,163.13
2018-09-03T12:52:51.258Z,174.38
2018-09-03T12:55:10.734Z,185.63
2018-09-03T12:56:10.099Z,185.63
2018-09-03T12:58:03.490Z,196.88
2018-09-03T12:59:03.470Z,202.50
2018-09-03T13:00:56.917Z,202.50
2018-09-03T13:01:56.932Z,196.88
2018-09-03T13:03:50.846Z,196.88
2018-09-03T13:04:49.950Z,202.50
2018-09-03T13:06:43.736Z,219.38
2018-09-03T13:07:43.635Z,219.38
2018-09-03T13:09:53.198Z,230.63
2018-09-03T13:10:42.351Z,236.25
2018-09-03T13:12:42.850Z,247.50
2018-09-03T13:13:42.864Z,253.13
2018-09-03T13:15:36.149Z,264.38
2018-09-03T13:16:35.833Z,270.00
2018-09-03T13:18:29.594Z,270.00
2018-09-03T13:19:29.162Z,264.38
2018-09-03T13:21:22.957Z,247.50
2018-09-03T13:22:23.435Z,241.88
2018-09-03T13:24:15.870Z,241.88
2018-09-03T13:25:15.717Z,236.25
2018-09-03T13:27:08.718Z,202.50
2018-09-03T13:28:08.328Z,185.63
2018-09-03T13:30:02.041Z,163.13
2018-09-03T13:31:01.707Z,157.50
2018-09-03T13:32:55.493Z,157.50
2018-09-03T13:33:55.573Z,180.00
2018-09-03T13:35:50.972Z,191.25
2018-09-03T13:36:49.873Z,191.25
2018-09-03T13:38:43.295Z,191.25
2018-09-03T13:39:42.910Z,185.63
2018-09-03T13:41:37.887Z,163.13
2018-09-03T13:42:36.714Z,151.88
2018-09-03T13:44:29.971Z,135.00
2018-09-03T13:45:31.557Z,123.75
2018-09-03T13:47:23.528Z,129.38
2018-09-03T13:48:23.108Z,140.63
2018-09-03T13:50:16.937Z,163.13
2018-09-03T13:51:16.912Z,163.13
2018-09-03T13:53:12.328Z,163.13
2018-09-03T13:54:11.247Z,174.38
2018-09-03T13:56:07.321Z,180.00
2018-09-03T13:57:05.040Z,174.38
2018-09-03T13:58:58.459Z,157.50
2018-09-03T13:59:58.104Z,151.88
2018-09-03T14:01:51.901Z,135.00
2018-09-03T14:02:52.124Z,135.00
2018-09-03T14:04:49.302Z,140.63
2018-09-03T14:05:44.455Z,129.38
2018-09-03T14:07:37.306Z,118.13
2018-09-03T14:08:37.726Z,118.13
2018-09-03T14:10:31.172Z,118.13
2018-09-03T14:11:31.026Z,118.13
2018-09-03T14:13:26.138Z,118.13
2018-09-03T14:14:25.034Z,112.50
2018-09-03T14:16:18.953Z,101.25
2018-09-03T14:17:18.810Z,106.88
2018-09-03T14:19:12.305Z,112.50
2018-09-03T14:20:12.786Z,106.88
2018-09-03T14:22:05.621Z,112.50
2018-09-03T14:23:05.645Z,118.13
2018-09-03T14:24:59.106Z,118.13
2018-09-03T14:25:58.505Z,112.50
2018-09-03T14:27:51.524Z,101.25
2018-09-03T14:28:51.690Z,101.25
2018-09-03T14:30:44.848Z,118.13
2018-09-03T14:31:44.448Z,129.38
2018-09-03T14:33:39.813Z,140.63
2018-09-03T14:34:37.903Z,146.25
2018-09-03T14:36:34.392Z,146.25
2018-09-03T14:37:31.208Z,146.25
2018-09-03T14:39:24.969Z,129.38
2018-09-03T14:40:24.987Z,123.75
2018-09-03T14:42:18.397Z,123.75
2018-09-03T14:43:18.367Z,123.75
2018-09-03T14:45:11.312Z,112.50
2018-09-03T14:46:11.275Z,106.88
2018-09-03T14:48:06.316Z,106.88
2018-09-03T14:49:05.643Z,101.25
2018-09-03T14:50:59.109Z,106.88
2018-09-03T14:51:58.963Z,112.50
2018-09-03T14:53:53.065Z,118.13
2018-09-03T14:54:53.004Z,118.13
2018-09-03T14:56:46.364Z,106.88
2018-09-03T14:57:46.870Z,106.88
2018-09-03T14:59:39.642Z,112.50
2018-09-03T15:00:39.795Z,106.88
2018-09-03T15:02:33.139Z,95.63
2018-09-03T15:03:33.046Z,90.00
2018-09-03T15:05:26.577Z,90.00
2018-09-03T15:06:26.416Z,84.38
2018-09-03T15:08:22.989Z,84.38
2018-09-03T15:09:22.442Z,84.38
2018-09-03T15:11:15.782Z,84.38
2018-09-03T15:12:16.022Z,78.75
2018-09-03T15:14:11.258Z,78.75
2018-09-03T15:15:11.848Z,78.75
2018-09-03T15:17:05.184Z,84.38
2018-09-03T15:18:04.671Z,84.38
2018-09-03T15:19:59.297Z,84.38
2018-09-03T15:22:12.765Z,95.63
2018-09-03T15:23:14.855Z,95.63
2018-09-03T15:25:05.436Z,78.75
2018-09-03T15:26:04.953Z,67.50
2018-09-03T15:27:57.972Z,56.25
2018-09-03T15:28:58.358Z,56.25
2018-09-03T15:30:54.716Z,50.63
2018-09-03T15:31:53.266Z,50.63
2018-09-03T15:33:47.778Z,45.00
2018-09-03T15:34:47.764Z,45.00
2018-09-03T15:36:42.252Z,45.00
2018-09-03T15:37:41.018Z,45.00
2018-09-03T15:39:37.051Z,39.38
2018-09-03T15:40:34.010Z,39.38
2018-09-03T15:42:27.146Z,33.75
2018-09-03T15:43:27.044Z,33.75
2018-09-03T15:45:20.050Z,28.13
2018-09-03T15:46:19.979Z,28.13
2018-09-03T15:48:13.679Z,33.75
2018-09-03T15:49:13.375Z,33.75
2018-09-03T15:51:07.884Z,33.75
2018-09-03T15:52:07.752Z,33.75
2018-09-03T15:54:00.735Z,28.13
2018-09-03T15:55:00.998Z,28.13
2018-09-03T15:56:54.207Z,22.50
2018-09-03T15:57:54.612Z,22.50
2018-09-03T15:59:47.851Z,16.88
2018-09-03T16:00:48.081Z,16.88
2018-09-03T16:02:41.239Z,16.88
2018-09-03T16:03:40.920Z,22.50
2018-09-03T16:05:35.208Z,22.50
2018-09-03T16:07:49.548Z,22.50
2018-09-03T16:08:48.528Z,22.50
2018-09-03T16:10:42.078Z,22.50
2018-09-03T16:13:00.813Z,22.50
2018-09-03T16:13:56.678Z,22.50
2018-09-03T16:15:51.582Z,16.88
2018-09-03T16:16:49.549Z,16.88
2018-09-03T16:18:42.452Z,16.88
2018-09-03T16:19:42.408Z,16.88
2018-09-03T16:21:36.795Z,16.88
2018-09-03T16:22:37.610Z,16.88
2018-09-03T16:24:28.978Z,16.88
2018-09-03T16:25:30.308Z,11.25
2018-09-03T16:27:22.408Z,11.25
2018-09-03T16:28:21.945Z,11.25
2018-09-03T16:30:16.167Z,16.88
2018-09-03T16:31:15.266Z,16.88
2018-09-03T16:33:10.796Z,16.88
2018-09-03T16:34:12.417Z,16.88
2018-09-03T16:36:02.478Z,16.88
2018-09-03T16:37:02.068Z,16.88
2018-09-03T16:38:55.113Z,22.50
2018-09-03T16:39:55.243Z,22.50
2018-09-03T16:41:48.656Z,22.50
2018-09-03T16:42:48.341Z,22.50
2018-09-03T16:44:42.575Z,28.13
2018-09-03T16:45:41.894Z,28.13
2018-09-03T16:47:35.636Z,28.13
2018-09-03T16:48:35.168Z,22.50
2018-09-03T16:50:28.902Z,22.50
2018-09-03T16:51:28.539Z,22.50
2018-09-03T16:53:22.330Z,22.50
2018-09-03T16:54:22.215Z,16.88
2018-09-03T16:56:15.290Z,16.88
2018-09-03T16:57:15.193Z,16.88
2018-09-03T16:59:09.158Z,16.88
2018-09-03T17:00:08.258Z,16.88
2018-09-03T17:02:02.024Z,11.25
2018-09-03T17:03:01.611Z,11.25
2018-09-03T17:04:56.047Z,11.25
2018-09-03T17:05:54.597Z,11.25
2018-09-03T17:07:47.549Z,11.25
2018-09-03T17:08:47.458Z,11.25
2018-09-03T17:10:41.430Z,11.25
2018-09-03T17:11:41.426Z,11.25
2018-09-03T17:13:34.637Z,11.25
2018-09-03T17:14:34.223Z,11.25
2018-09-03T17:16:27.400Z,11.25
2018-09-03T17:17:27.197Z,11.25
2018-09-03T17:19:20.021Z,11.25
2018-09-03T17:20:20.024Z,11.25
2018-09-03T17:22:13.663Z,11.25
2018-09-03T17:23:13.364Z,11.25
2018-09-03T17:25:07.151Z,5.63
2018-09-03T17:26:07.364Z,5.63
2018-09-03T17:28:00.542Z,11.25
2018-09-03T17:29:00.131Z,11.25
2018-09-03T17:30:53.534Z,11.25
2018-09-03T17:31:53.512Z,11.25
2018-09-03T17:33:48.113Z,5.63
2018-09-03T17:34:47.914Z,5.63
2018-09-03T17:36:41.323Z,5.63
2018-09-03T17:37:40.800Z,5.63
2018-09-03T17:39:34.348Z,5.63
2018-09-03T17:40:34.161Z,5.63
2018-09-03T17:42:27.766Z,5.63
2018-09-03T17:43:27.517Z,5.63
2018-09-03T17:45:20.414Z,0.00
2018-09-03T17:46:20.403Z,0.00
2018-09-03T17:48:14.358Z,0.00
2018-09-03T17:49:13.797Z,0.00
2018-09-03T17:51:06.684Z,0.00
2018-09-03T17:52:06.668Z,0.00
2018-09-03T17:54:00.261Z,0.00
2018-09-03T17:55:02.588Z,0.00
2018-09-03T17:56:53.072Z,0.00
2018-09-03T17:57:52.936Z,0.00
2018-09-03T17:59:46.596Z,0.00
2018-09-03T18:00:46.350Z,0.00
2018-09-03T18:02:40.006Z,0.00
2018-09-03T18:03:39.778Z,0.00
2018-09-03T18:05:32.960Z,0.00
2018-09-03T18:06:32.604Z,0.00
2018-09-03T18:08:26.339Z,0.00
2018-09-03T18:09:25.459Z,0.00
2018-09-03T18:11:18.889Z,0.00
2018-09-03T18:12:18.827Z,0.00
2018-09-03T18:14:12.293Z,0.00
2018-09-03T18:15:12.211Z,0.00
2018-09-03T18:17:05.832Z,0.00
2018-09-03T18:18:06.175Z,0.00
2018-09-03T18:19:59.804Z,0.00
2018-09-03T18:20:58.744Z,0.00
2018-09-03T18:22:52.458Z,0.00
2018-09-03T18:23:52.114Z,0.00
2018-09-03T18:25:46.051Z,0.00
2018-09-03T18:26:45.483Z,0.00
2018-09-03T18:28:39.481Z,0.00
2018-09-03T18:29:39.432Z,0.00
2018-09-03T18:31:32.082Z,0.00
2018-09-03T18:32:31.742Z,0.00
2018-09-03T18:34:25.503Z,0.00
2018-09-03T18:35:25.130Z,0.00
2018-09-03T18:37:18.568Z,0.00
2018-09-03T18:38:18.559Z,0.00
2018-09-03T18:40:12.494Z,0.00
2018-09-03T18:41:11.924Z,0.00
2018-09-03T18:43:05.090Z,0.00